createdAt,value
2019-05-01T00:00:17.537Z,21.55
2019-05-01T00:01:31.009Z,21.63
2019-05-01T00:02:44.769Z,21.65
2019-05-01T00:03:47.509Z,21.70
2019-05-01T00:04:49.245Z,21.73
2019-05-01T00:05:53.907Z,21.75
2019-05-01T00:07:06.989Z,21.76
2019-05-01T00:08:09.886Z,21.78
2019-05-01T00:09:12.733Z,21.80
2019-05-01T00:10:19.362Z,21.80
2019-05-01T00:11:22.245Z,21.80
2019-05-01T00:12:24.698Z,21.78
2019-05-01T00:13:27.798Z,21.72
2019-05-01T00:14:31.971Z,21.71
2019-05-01T00:15:37.680Z,21.68
2019-05-01T00:16:42.041Z,21.67
2019-05-01T00:17:44.552Z,21.73
2019-05-01T00:18:47.046Z,21.74
2019-05-01T00:19:49.766Z,21.75
2019-05-01T00:20:54.762Z,21.78
2019-05-01T00:21:57.292Z,21.79
2019-05-01T00:23:00.235Z,21.80
2019-05-01T00:24:03.792Z,21.86
2019-05-01T00:25:05.821Z,21.88
2019-05-01T00:26:08.805Z,21.86
2019-05-01T00:27:11.370Z,21.86
2019-05-01T00:28:13.910Z,21.80
2019-05-01T00:29:18.133Z,21.73
2019-05-01T00:30:29.828Z,21.71
2019-05-01T00:31:26.537Z,21.70
2019-05-01T00:32:29.986Z,21.68
2019-05-01T00:33:31.812Z,21.65
2019-05-01T00:34:34.148Z,21.65
2019-05-01T00:35:38.460Z,21.64
2019-05-01T00:36:41.235Z,21.62
2019-05-01T00:37:45.349Z,21.61
2019-05-01T00:38:47.630Z,21.63
2019-05-01T00:39:50.159Z,21.66
2019-05-01T00:40:52.896Z,21.74
2019-05-01T00:41:56.837Z,21.68
2019-05-01T00:42:58.631Z,21.59
2019-05-01T00:44:00.326Z,21.63
2019-05-01T00:45:05.070Z,21.60
2019-05-01T00:46:07.027Z,21.39
2019-05-01T00:47:09.499Z,21.36
2019-05-01T00:48:12.225Z,21.34
2019-05-01T00:49:15.217Z,21.39
2019-05-01T00:50:18.007Z,21.42
2019-05-01T00:51:21.091Z,21.46
2019-05-01T00:52:23.469Z,21.48
2019-05-01T00:53:25.999Z,21.56
2019-05-01T00:54:29.543Z,21.64
2019-05-01T00:55:47.587Z,21.56
2019-05-01T00:56:52.299Z,21.52
2019-05-01T00:58:00.006Z,21.54
2019-05-01T00:59:04.984Z,21.55
2019-05-01T01:00:28.395Z,21.55
2019-05-01T01:01:38.747Z,21.52
2019-05-01T01:02:43.658Z,21.47
2019-05-01T01:03:45.539Z,21.47
2019-05-01T01:04:48.067Z,21.47
2019-05-01T01:05:50.834Z,21.48
2019-05-01T01:06:53.013Z,21.48
2019-05-01T01:07:56.302Z,21.52
2019-05-01T01:09:00.797Z,21.52
2019-05-01T01:10:05.905Z,21.55
2019-05-01T01:11:08.521Z,21.54
2019-05-01T01:12:10.449Z,21.54
2019-05-01T01:13:14.147Z,21.54
2019-05-01T01:14:17.028Z,21.50
2019-05-01T01:15:19.149Z,21.52
2019-05-01T01:16:21.716Z,21.52
2019-05-01T01:17:25.892Z,21.52
2019-05-01T01:18:28.072Z,21.51
2019-05-01T01:19:31.886Z,21.51
2019-05-01T01:20:34.151Z,21.53
2019-05-01T01:21:36.750Z,21.56
2019-05-01T01:22:39.712Z,21.49
2019-05-01T01:23:43.036Z,21.51
2019-05-01T01:24:47.636Z,21.50
2019-05-01T01:25:50.490Z,21.49
2019-05-01T01:26:53.252Z,21.47
2019-05-01T01:27:55.314Z,21.46
2019-05-01T01:28:58.571Z,21.45
2019-05-01T01:30:00.950Z,21.45
2019-05-01T01:31:03.546Z,21.47
2019-05-01T01:32:08.042Z,21.49
2019-05-01T01:33:10.783Z,21.48
2019-05-01T01:34:14.030Z,21.52
2019-05-01T01:35:17.774Z,21.52
2019-05-01T01:36:20.388Z,21.50
2019-05-01T01:37:22.976Z,21.50
2019-05-01T01:38:25.784Z,21.51
2019-05-01T01:39:29.165Z,21.50
2019-05-01T01:40:31.398Z,21.50
2019-05-01T01:41:34.369Z,21.52
2019-05-01T01:42:37.351Z,21.53
2019-05-01T01:43:53.451Z,21.55
2019-05-01T01:44:58.096Z,21.55
2019-05-01T01:46:05.944Z,21.55
2019-05-01T01:47:08.863Z,21.55
2019-05-01T01:48:13.094Z,21.53
2019-05-01T01:49:15.387Z,21.48
2019-05-01T01:50:17.828Z,21.48
2019-05-01T01:51:20.431Z,21.41
2019-05-01T01:52:23.724Z,21.37
2019-05-01T01:53:26.324Z,21.38
2019-05-01T01:54:29.241Z,21.37
2019-05-01T01:55:31.639Z,21.41
2019-05-01T01:56:35.048Z,21.40
2019-05-01T01:57:37.666Z,21.41
2019-05-01T01:58:40.405Z,21.36
2019-05-01T01:59:43.349Z,21.34
2019-05-01T02:01:09.679Z,21.34
2019-05-01T02:02:16.195Z,21.35
2019-05-01T02:03:19.073Z,21.39
2019-05-01T02:04:26.329Z,21.41
2019-05-01T02:05:32.323Z,21.36
2019-05-01T02:06:34.773Z,21.32
2019-05-01T02:07:37.520Z,21.28
2019-05-01T02:08:40.075Z,21.29
2019-05-01T02:09:42.972Z,21.30
2019-05-01T02:10:45.729Z,21.30
2019-05-01T02:11:49.144Z,21.23
2019-05-01T02:12:51.196Z,21.24
2019-05-01T02:13:55.077Z,21.22
2019-05-01T02:14:58.251Z,21.25
2019-05-01T02:16:00.700Z,21.28
2019-05-01T02:17:03.574Z,21.27
2019-05-01T02:18:06.057Z,21.24
2019-05-01T02:19:08.543Z,21.22
2019-05-01T02:20:11.987Z,21.24
2019-05-01T02:21:15.016Z,21.21
2019-05-01T02:22:16.940Z,21.22
2019-05-01T02:23:19.254Z,21.20
2019-05-01T02:24:21.864Z,21.21
2019-05-01T02:25:24.564Z,21.23
2019-05-01T02:26:30.006Z,21.13
2019-05-01T02:27:36.720Z,21.14
2019-05-01T02:28:59.207Z,21.07
2019-05-01T02:30:08.632Z,21.12
2019-05-01T02:31:27.750Z,21.13
2019-05-01T02:32:26.847Z,21.18
2019-05-01T02:33:29.462Z,21.11
2019-05-01T02:34:34.556Z,21.09
2019-05-01T02:35:38.055Z,20.94
2019-05-01T02:36:42.344Z,20.96
2019-05-01T02:37:47.879Z,21.00
2019-05-01T02:38:53.617Z,21.03
2019-05-01T02:39:57.695Z,20.92
2019-05-01T02:41:02.211Z,20.84
2019-05-01T02:42:07.893Z,20.90
2019-05-01T02:43:14.477Z,21.00
2019-05-01T02:44:34.917Z,20.91
2019-05-01T02:45:41.146Z,20.96
2019-05-01T02:46:47.823Z,20.93
2019-05-01T02:47:50.922Z,20.86
2019-05-01T02:49:10.587Z,20.89
2019-05-01T02:50:15.806Z,20.83
2019-05-01T02:51:19.025Z,20.86
2019-05-01T02:52:24.788Z,20.79
2019-05-01T02:53:29.915Z,20.74
2019-05-01T02:54:33.674Z,20.74
2019-05-01T02:55:38.679Z,20.77
2019-05-01T02:56:45.976Z,20.77
2019-05-01T02:57:50.100Z,20.76
2019-05-01T02:58:55.866Z,20.73
2019-05-01T02:59:58.921Z,20.68
2019-05-01T03:01:01.848Z,20.60
2019-05-01T03:02:06.342Z,20.58
2019-05-01T03:03:10.151Z,20.60
2019-05-01T03:04:13.802Z,20.74
2019-05-01T03:05:16.646Z,20.72
2019-05-01T03:06:20.980Z,20.73
2019-05-01T03:07:26.890Z,20.73
2019-05-01T03:08:30.120Z,20.75
2019-05-01T03:09:32.775Z,20.73
2019-05-01T03:10:36.130Z,20.73
2019-05-01T03:11:39.970Z,20.70
2019-05-01T03:12:45.650Z,20.70
2019-05-01T03:13:52.316Z,20.72
2019-05-01T03:14:58.517Z,20.58
2019-05-01T03:16:02.815Z,20.64
2019-05-01T03:17:09.602Z,20.62
2019-05-01T03:18:15.429Z,20.65
2019-05-01T03:19:21.204Z,20.60
2019-05-01T03:20:43.666Z,20.56
2019-05-01T03:21:51.183Z,20.60
2019-05-01T03:23:12.330Z,20.67
2019-05-01T03:24:19.907Z,20.65
2019-05-01T03:25:22.942Z,20.62
2019-05-01T03:26:25.867Z,20.64
2019-05-01T03:27:28.529Z,20.61
2019-05-01T03:28:31.429Z,20.61
2019-05-01T03:29:34.953Z,20.62
2019-05-01T03:30:37.828Z,20.61
2019-05-01T03:31:40.534Z,20.66
2019-05-01T03:32:43.251Z,20.67
2019-05-01T03:33:46.374Z,20.67
2019-05-01T03:34:52.690Z,20.61
2019-05-01T03:35:54.077Z,20.63
2019-05-01T03:36:56.856Z,20.63
2019-05-01T03:37:59.282Z,20.66
2019-05-01T03:39:04.847Z,20.57
2019-05-01T03:40:07.582Z,20.58
2019-05-01T03:41:11.090Z,20.60
2019-05-01T03:42:13.529Z,20.59
2019-05-01T03:43:16.345Z,20.67
2019-05-01T03:44:19.194Z,20.71
2019-05-01T03:45:22.516Z,20.68
2019-05-01T03:46:25.473Z,20.67
2019-05-01T03:47:29.083Z,20.68
2019-05-01T03:48:32.742Z,20.64
2019-05-01T03:49:35.372Z,20.58
2019-05-01T03:50:38.679Z,20.54
2019-05-01T03:51:40.700Z,20.43
2019-05-01T03:52:43.120Z,20.42
2019-05-01T03:53:46.032Z,20.57
2019-05-01T03:54:48.938Z,20.62
2019-05-01T03:55:52.019Z,20.59
2019-05-01T03:56:56.231Z,20.56
2019-05-01T03:57:59.435Z,20.52
2019-05-01T03:59:03.222Z,20.56
2019-05-01T04:00:08.034Z,20.58
2019-05-01T04:01:18.385Z,20.58
2019-05-01T04:02:33.638Z,20.58
2019-05-01T04:03:31.880Z,20.57
2019-05-01T04:04:34.787Z,20.57
2019-05-01T04:05:37.168Z,20.54
2019-05-01T04:06:40.092Z,20.52
2019-05-01T04:07:45.495Z,20.42
2019-05-01T04:08:48.546Z,20.43
2019-05-01T04:09:51.066Z,20.45
2019-05-01T04:10:54.215Z,20.44
2019-05-01T04:11:56.412Z,20.38
2019-05-01T04:12:58.669Z,20.40
2019-05-01T04:14:01.496Z,20.36
2019-05-01T04:15:05.057Z,20.42
2019-05-01T04:16:08.402Z,20.46
2019-05-01T04:17:30.565Z,20.45
2019-05-01T04:18:33.290Z,20.41
2019-05-01T04:19:36.272Z,20.33
2019-05-01T04:20:39.095Z,20.36
2019-05-01T04:21:46.745Z,20.44
2019-05-01T04:22:49.383Z,20.49
2019-05-01T04:23:52.224Z,20.44
2019-05-01T04:24:55.091Z,20.33
2019-05-01T04:25:59.473Z,20.35
2019-05-01T04:27:03.269Z,20.50
2019-05-01T04:28:24.695Z,20.55
2019-05-01T04:29:29.666Z,20.49
2019-05-01T04:30:34.380Z,20.38
2019-05-01T04:31:50.940Z,20.46
2019-05-01T04:32:55.925Z,20.42
2019-05-01T04:34:17.225Z,20.48
2019-05-01T04:35:28.034Z,20.44
2019-05-01T04:36:32.451Z,20.46
2019-05-01T04:37:35.683Z,20.53
2019-05-01T04:38:38.461Z,20.52
2019-05-01T04:39:41.116Z,20.45
2019-05-01T04:40:44.071Z,20.40
2019-05-01T04:41:46.539Z,20.39
2019-05-01T04:42:49.432Z,20.55
2019-05-01T04:43:52.789Z,20.54
2019-05-01T04:44:56.877Z,20.54
2019-05-01T04:46:00.497Z,20.55
2019-05-01T04:47:04.954Z,20.67
2019-05-01T04:48:07.820Z,20.78
2019-05-01T04:49:11.007Z,20.82
2019-05-01T04:50:14.498Z,20.80
2019-05-01T04:51:17.254Z,20.70
2019-05-01T04:52:20.238Z,20.74
2019-05-01T04:53:22.877Z,20.70
2019-05-01T04:54:25.903Z,20.66
2019-05-01T04:55:27.996Z,20.69
2019-05-01T04:56:31.031Z,20.65
2019-05-01T04:57:33.815Z,20.76
2019-05-01T04:58:37.185Z,20.70
2019-05-01T04:59:41.769Z,20.57
2019-05-01T05:00:44.681Z,20.75
2019-05-01T05:01:52.113Z,20.76
2019-05-01T05:03:04.478Z,20.65
2019-05-01T05:04:01.508Z,20.73
2019-05-01T05:05:05.711Z,20.73
2019-05-01T05:06:08.244Z,20.72
2019-05-01T05:07:10.629Z,20.69
2019-05-01T05:08:13.823Z,20.73
2019-05-01T05:09:15.936Z,20.71
2019-05-01T05:10:18.086Z,20.70
2019-05-01T05:11:25.664Z,20.68
2019-05-01T05:12:45.863Z,20.65
2019-05-01T05:14:07.410Z,20.63
2019-05-01T05:15:19.068Z,20.60
2019-05-01T05:16:40.184Z,20.58
2019-05-01T05:17:44.288Z,20.55
2019-05-01T05:18:46.783Z,20.56
2019-05-01T05:19:49.354Z,20.54
2019-05-01T05:20:52.169Z,20.51
2019-05-01T05:21:55.566Z,20.49
2019-05-01T05:22:58.833Z,20.44
2019-05-01T05:24:01.480Z,20.47
2019-05-01T05:25:04.783Z,20.45
2019-05-01T05:26:07.384Z,20.47
2019-05-01T05:27:12.289Z,20.34
2019-05-01T05:28:15.040Z,20.34
2019-05-01T05:29:18.821Z,20.32
2019-05-01T05:30:22.332Z,20.32
2019-05-01T05:31:25.637Z,20.28
2019-05-01T05:32:30.657Z,20.26
2019-05-01T05:33:34.741Z,20.26
2019-05-01T05:34:39.892Z,20.22
2019-05-01T05:35:43.263Z,20.21
2019-05-01T05:36:49.716Z,20.16
2019-05-01T05:37:57.130Z,20.18
2019-05-01T05:39:03.704Z,20.13
2019-05-01T05:40:08.403Z,20.09
2019-05-01T05:41:13.315Z,20.03
2019-05-01T05:42:16.195Z,20.03
2019-05-01T05:43:18.193Z,20.03
2019-05-01T05:44:22.799Z,19.97
2019-05-01T05:45:26.151Z,19.84
2019-05-01T05:46:29.111Z,19.89
2019-05-01T05:47:31.712Z,19.85
2019-05-01T05:48:34.093Z,19.81
2019-05-01T05:49:37.207Z,19.72
2019-05-01T05:50:48.179Z,19.73
2019-05-01T05:52:00.162Z,19.68
2019-05-01T05:53:07.950Z,19.69
2019-05-01T05:54:13.738Z,19.67
2019-05-01T05:55:20.129Z,19.64
2019-05-01T05:56:27.248Z,19.66
2019-05-01T05:57:42.480Z,19.58
2019-05-01T05:58:57.736Z,19.63
2019-05-01T06:00:03.350Z,19.62
2019-05-01T06:01:17.986Z,19.71
2019-05-01T06:02:23.168Z,19.78
2019-05-01T06:03:44.946Z,19.88
2019-05-01T06:05:07.668Z,19.91
2019-05-01T06:06:22.337Z,19.87
2019-05-01T06:07:30.989Z,19.78
2019-05-01T06:08:37.318Z,19.70
2019-05-01T06:09:48.510Z,19.55
2019-05-01T06:11:08.716Z,19.62
2019-05-01T06:12:30.787Z,19.67
2019-05-01T06:13:56.880Z,19.72
2019-05-01T06:15:19.189Z,19.84
2019-05-01T06:16:24.980Z,19.88
2019-05-01T06:17:33.391Z,19.87
2019-05-01T06:18:47.895Z,19.77
2019-05-01T06:19:53.624Z,19.82
2019-05-01T06:21:02.578Z,19.74
2019-05-01T06:22:19.070Z,19.71
2019-05-01T06:23:26.365Z,19.68
2019-05-01T06:24:31.630Z,19.75
2019-05-01T06:25:41.476Z,19.68
2019-05-01T06:26:44.419Z,19.78
2019-05-01T06:27:49.238Z,19.75
2019-05-01T06:28:55.814Z,19.75
2019-05-01T06:29:57.564Z,19.73
2019-05-01T06:31:17.786Z,19.73
2019-05-01T06:32:28.758Z,19.68
2019-05-01T06:33:29.155Z,19.75
2019-05-01T06:34:32.016Z,19.80
2019-05-01T06:35:38.237Z,19.75
2019-05-01T06:36:39.421Z,19.77
2019-05-01T06:38:02.605Z,19.81
2019-05-01T06:39:11.850Z,19.76
2019-05-01T06:40:13.931Z,19.80
2019-05-01T06:41:18.291Z,19.84
2019-05-01T06:42:23.016Z,19.77
2019-05-01T06:43:36.485Z,19.80
2019-05-01T06:44:48.106Z,19.70
2019-05-01T06:45:53.187Z,19.74
2019-05-01T06:47:03.233Z,19.80
2019-05-01T06:48:07.414Z,19.77
2019-05-01T06:49:17.965Z,19.85
2019-05-01T06:50:32.342Z,19.79
2019-05-01T06:51:41.445Z,19.73
2019-05-01T06:52:44.724Z,19.63
2019-05-01T06:53:48.589Z,19.61
2019-05-01T06:54:53.619Z,19.61
2019-05-01T06:55:56.395Z,19.58
2019-05-01T06:57:02.227Z,19.66
2019-05-01T06:58:05.858Z,19.66
2019-05-01T06:59:09.239Z,19.66
2019-05-01T07:00:13.738Z,19.66
2019-05-01T07:01:19.194Z,19.65
2019-05-01T07:02:22.686Z,19.68
2019-05-01T07:03:25.784Z,19.71
2019-05-01T07:04:32.495Z,19.70
2019-05-01T07:05:33.465Z,19.72
2019-05-01T07:06:36.749Z,19.80
2019-05-01T07:07:39.440Z,19.80
2019-05-01T07:08:42.389Z,19.82
2019-05-01T07:09:49.346Z,19.84
2019-05-01T07:10:52.647Z,19.80
2019-05-01T07:11:56.354Z,19.88
2019-05-01T07:13:04.839Z,19.90
2019-05-01T07:14:11.226Z,19.91
2019-05-01T07:15:14.451Z,19.89
2019-05-01T07:16:18.108Z,19.86
2019-05-01T07:17:21.195Z,19.82
2019-05-01T07:18:28.808Z,19.83
2019-05-01T07:19:49.364Z,19.82
2019-05-01T07:20:53.228Z,19.88
2019-05-01T07:21:56.404Z,19.89
2019-05-01T07:22:59.533Z,19.81
2019-05-01T07:24:02.147Z,19.83
2019-05-01T07:25:08.097Z,19.85
2019-05-01T07:26:13.693Z,19.86
2019-05-01T07:27:18.857Z,19.90
2019-05-01T07:28:20.851Z,19.86
2019-05-01T07:29:28.685Z,19.93
2019-05-01T07:30:44.827Z,19.95
2019-05-01T07:31:47.749Z,19.90
2019-05-01T07:32:52.025Z,19.90
2019-05-01T07:33:54.923Z,19.90
2019-05-01T07:35:02.165Z,19.96
2019-05-01T07:36:07.012Z,19.88
2019-05-01T07:37:08.630Z,19.85
2019-05-01T07:38:11.209Z,19.80
2019-05-01T07:39:15.922Z,19.79
2019-05-01T07:40:20.770Z,19.87
2019-05-01T07:41:23.591Z,19.85
2019-05-01T07:42:28.372Z,19.87
2019-05-01T07:43:55.013Z,19.94
2019-05-01T07:45:09.800Z,19.91
2019-05-01T07:46:18.350Z,19.97
2019-05-01T07:47:25.902Z,19.95
2019-05-01T07:48:41.697Z,19.88
2019-05-01T07:49:54.798Z,19.88
2019-05-01T07:51:01.863Z,19.82
2019-05-01T07:52:02.502Z,19.76
2019-05-01T07:53:05.552Z,19.82
2019-05-01T07:54:09.031Z,19.83
2019-05-01T07:55:18.208Z,19.80
2019-05-01T07:56:22.843Z,19.81
2019-05-01T07:57:24.043Z,19.81
2019-05-01T07:58:28.067Z,19.79
2019-05-01T07:59:30.668Z,19.73
2019-05-01T08:00:49.894Z,19.79
2019-05-01T08:01:57.100Z,19.78
2019-05-01T08:03:02.634Z,19.85
2019-05-01T08:04:04.409Z,19.87
2019-05-01T08:05:10.068Z,19.89
2019-05-01T08:06:16.340Z,19.87
2019-05-01T08:07:19.304Z,19.87
2019-05-01T08:08:23.738Z,19.87
2019-05-01T08:09:26.666Z,19.85
2019-05-01T08:10:31.548Z,19.83
2019-05-01T08:11:32.764Z,19.79
2019-05-01T08:12:35.860Z,19.77
2019-05-01T08:13:38.266Z,19.79
2019-05-01T08:14:40.684Z,19.83
2019-05-01T08:15:42.890Z,19.75
2019-05-01T08:16:45.735Z,19.80
2019-05-01T08:17:54.288Z,19.77
2019-05-01T08:19:05.915Z,19.78
2019-05-01T08:20:15.112Z,19.78
2019-05-01T08:21:26.205Z,19.74
2019-05-01T08:22:32.053Z,19.73
2019-05-01T08:23:31.958Z,19.73
2019-05-01T08:24:33.855Z,19.71
2019-05-01T08:25:36.088Z,19.73
2019-05-01T08:26:39.652Z,19.74
2019-05-01T08:27:56.418Z,19.77
2019-05-01T08:29:14.813Z,19.77
2019-05-01T08:30:22.245Z,19.79
2019-05-01T08:31:34.807Z,19.85
2019-05-01T08:32:44.848Z,19.81
2019-05-01T08:33:55.598Z,19.89
2019-05-01T08:35:00.551Z,19.88
2019-05-01T08:36:06.935Z,19.88
2019-05-01T08:37:11.421Z,19.97
2019-05-01T08:38:14.245Z,19.97
2019-05-01T08:39:17.040Z,19.99
2019-05-01T08:40:21.768Z,20.00
2019-05-01T08:41:27.142Z,20.00
2019-05-01T08:42:29.422Z,20.06
2019-05-01T08:43:32.077Z,20.05
2019-05-01T08:44:42.208Z,20.02
2019-05-01T08:45:47.537Z,20.02
2019-05-01T08:47:08.905Z,20.06
2019-05-01T08:48:13.301Z,20.05
2019-05-01T08:49:29.302Z,20.10
2019-05-01T08:50:32.285Z,20.10
2019-05-01T08:51:35.184Z,20.13
2019-05-01T08:52:42.746Z,20.18
2019-05-01T08:53:43.885Z,20.24
2019-05-01T08:54:45.857Z,20.20
2019-05-01T08:55:48.235Z,20.25
2019-05-01T08:56:53.031Z,20.24
2019-05-01T08:57:54.888Z,20.21
2019-05-01T08:58:57.412Z,20.26
2019-05-01T09:00:02.081Z,20.17
2019-05-01T09:01:05.586Z,20.27
2019-05-01T09:02:09.765Z,20.28
2019-05-01T09:03:13.547Z,20.27
2019-05-01T09:04:18.775Z,20.26
2019-05-01T09:05:28.746Z,20.26
2019-05-01T09:06:34.594Z,20.22
2019-05-01T09:07:32.486Z,20.26
2019-05-01T09:08:35.572Z,20.32
2019-05-01T09:09:39.830Z,20.39
2019-05-01T09:10:42.958Z,20.39
2019-05-01T09:11:46.023Z,20.36
2019-05-01T09:12:52.006Z,20.39
2019-05-01T09:13:54.666Z,20.36
2019-05-01T09:14:58.786Z,20.40
2019-05-01T09:16:01.840Z,20.36
2019-05-01T09:17:06.833Z,20.36
2019-05-01T09:18:10.493Z,20.32
2019-05-01T09:19:12.564Z,20.37
2019-05-01T09:20:17.248Z,20.44
2019-05-01T09:21:20.682Z,20.46
2019-05-01T09:22:23.799Z,20.49
2019-05-01T09:23:26.323Z,20.55
2019-05-01T09:24:29.454Z,20.55
2019-05-01T09:25:43.783Z,20.52
2019-05-01T09:26:50.220Z,20.63
2019-05-01T09:27:59.568Z,20.64
2019-05-01T09:29:02.745Z,20.66
2019-05-01T09:30:12.335Z,20.68
2019-05-01T09:31:17.047Z,20.67
2019-05-01T09:32:19.949Z,20.64
2019-05-01T09:33:26.232Z,20.66
2019-05-01T09:34:28.167Z,20.72
2019-05-01T09:35:30.637Z,20.66
2019-05-01T09:36:34.629Z,20.66
2019-05-01T09:37:38.978Z,20.59
2019-05-01T09:38:41.505Z,20.61
2019-05-01T09:39:47.210Z,20.63
2019-05-01T09:40:48.607Z,20.64
2019-05-01T09:41:52.513Z,20.63
2019-05-01T09:42:59.456Z,20.66
2019-05-01T09:44:00.821Z,20.74
2019-05-01T09:45:07.077Z,20.74
2019-05-01T09:46:09.792Z,20.79
2019-05-01T09:47:13.504Z,20.88
2019-05-01T09:48:17.082Z,20.85
2019-05-01T09:49:20.493Z,20.86
2019-05-01T09:50:25.870Z,20.84
2019-05-01T09:51:47.673Z,20.88
2019-05-01T09:52:55.232Z,20.80
2019-05-01T09:53:57.906Z,20.81
2019-05-01T09:55:02.172Z,20.74
2019-05-01T09:56:15.028Z,20.75
2019-05-01T09:57:18.170Z,20.79
2019-05-01T09:58:23.254Z,20.79
2019-05-01T09:59:29.213Z,20.81
2019-05-01T10:00:33.951Z,20.76
2019-05-01T10:01:36.235Z,20.84
2019-05-01T10:02:42.196Z,20.84
2019-05-01T10:03:44.861Z,20.81
2019-05-01T10:04:49.252Z,20.81
2019-05-01T10:05:51.826Z,20.89
2019-05-01T10:06:54.120Z,20.85
2019-05-01T10:08:03.971Z,20.83
2019-05-01T10:09:06.917Z,20.87
2019-05-01T10:10:11.361Z,20.96
2019-05-01T10:11:14.219Z,20.97
2019-05-01T10:12:16.750Z,20.94
2019-05-01T10:13:22.429Z,20.88
2019-05-01T10:14:24.147Z,20.83
2019-05-01T10:15:26.685Z,20.86
2019-05-01T10:16:29.252Z,20.85
2019-05-01T10:17:33.144Z,20.88
2019-05-01T10:18:37.285Z,20.92
2019-05-01T10:19:40.037Z,20.89
2019-05-01T10:20:43.030Z,20.88
2019-05-01T10:21:45.107Z,20.82
2019-05-01T10:22:49.435Z,20.83
2019-05-01T10:23:52.923Z,20.89
2019-05-01T10:24:54.761Z,20.90
2019-05-01T10:25:59.501Z,20.94
2019-05-01T10:27:03.696Z,20.87
2019-05-01T10:28:17.424Z,20.91
2019-05-01T10:29:21.370Z,20.88
2019-05-01T10:30:36.337Z,20.98
2019-05-01T10:31:49.507Z,21.00
2019-05-01T10:32:57.907Z,21.04
2019-05-01T10:34:07.653Z,20.99
2019-05-01T10:35:21.070Z,20.96
2019-05-01T10:36:31.475Z,21.06
2019-05-01T10:37:35.495Z,21.10
2019-05-01T10:38:40.013Z,21.15
2019-05-01T10:39:43.167Z,21.12
2019-05-01T10:40:46.080Z,21.08
2019-05-01T10:41:49.962Z,21.10
2019-05-01T10:42:54.735Z,21.06
2019-05-01T10:43:57.075Z,21.13
2019-05-01T10:44:59.647Z,21.11
2019-05-01T10:46:01.721Z,21.17
2019-05-01T10:47:04.371Z,21.11
2019-05-01T10:48:07.078Z,21.05
2019-05-01T10:49:08.984Z,21.02
2019-05-01T10:50:14.866Z,21.03
2019-05-01T10:51:17.796Z,20.99
2019-05-01T10:52:20.987Z,21.00
2019-05-01T10:53:24.796Z,21.04
2019-05-01T10:54:31.054Z,21.12
2019-05-01T10:55:34.502Z,21.19
2019-05-01T10:56:37.756Z,21.22
2019-05-01T10:57:42.122Z,21.23
2019-05-01T10:58:45.768Z,21.20
2019-05-01T10:59:49.830Z,21.23
2019-05-01T11:00:54.852Z,21.21
2019-05-01T11:02:00.400Z,21.05
2019-05-01T11:03:03.076Z,21.04
2019-05-01T11:04:06.818Z,21.11
2019-05-01T11:05:09.890Z,21.09
2019-05-01T11:06:12.274Z,21.12
2019-05-01T11:07:15.004Z,21.16
2019-05-01T11:08:17.518Z,21.13
2019-05-01T11:09:20.238Z,21.12
2019-05-01T11:10:23.538Z,21.14
2019-05-01T11:11:25.715Z,21.16
2019-05-01T11:12:27.578Z,21.13
2019-05-01T11:13:29.807Z,21.14
2019-05-01T11:14:32.711Z,21.15
2019-05-01T11:15:35.292Z,21.09
2019-05-01T11:16:37.831Z,21.13
2019-05-01T11:17:40.383Z,21.17
2019-05-01T11:18:43.078Z,21.11
2019-05-01T11:19:45.615Z,21.13
2019-05-01T11:20:48.091Z,21.16
2019-05-01T11:21:50.865Z,21.16
2019-05-01T11:22:53.398Z,21.16
2019-05-01T11:23:55.997Z,21.16
2019-05-01T11:24:58.481Z,21.16
2019-05-01T11:26:01.362Z,21.13
2019-05-01T11:27:07.351Z,21.13
2019-05-01T11:28:09.981Z,21.14
2019-05-01T11:29:12.869Z,21.18
2019-05-01T11:30:16.300Z,21.13
2019-05-01T11:31:20.467Z,21.15
2019-05-01T11:32:27.658Z,21.17
2019-05-01T11:33:48.647Z,21.23
2019-05-01T11:34:51.623Z,21.17
2019-05-01T11:36:08.947Z,21.19
2019-05-01T11:37:09.357Z,21.19
2019-05-01T11:38:15.340Z,21.28
2019-05-01T11:39:22.592Z,21.28
2019-05-01T11:40:42.618Z,21.29
2019-05-01T11:41:57.376Z,21.27
2019-05-01T11:43:02.489Z,21.24
2019-05-01T11:44:05.387Z,21.25
2019-05-01T11:45:09.317Z,21.21
2019-05-01T11:46:11.701Z,21.18
2019-05-01T11:47:15.829Z,21.18
2019-05-01T11:48:18.551Z,21.14
2019-05-01T11:49:20.845Z,21.15
2019-05-01T11:50:23.502Z,21.17
2019-05-01T11:51:25.384Z,21.19
2019-05-01T11:52:27.925Z,21.23
2019-05-01T11:53:31.925Z,21.28
2019-05-01T11:54:34.229Z,21.28
2019-05-01T11:55:36.444Z,21.26
2019-05-01T11:56:39.160Z,21.36
2019-05-01T11:57:41.480Z,21.35
2019-05-01T11:58:44.176Z,21.41
2019-05-01T11:59:46.490Z,21.37
2019-05-01T12:00:49.987Z,21.35
2019-05-01T12:01:52.632Z,21.40
2019-05-01T12:02:56.352Z,21.36
2019-05-01T12:03:58.734Z,21.39
2019-05-01T12:05:03.078Z,21.41
2019-05-01T12:06:07.381Z,21.39
2019-05-01T12:07:09.504Z,21.41
2019-05-01T12:08:11.934Z,21.42
2019-05-01T12:09:15.131Z,21.42
2019-05-01T12:10:19.240Z,21.44
2019-05-01T12:11:23.600Z,21.44
2019-05-01T12:12:30.508Z,21.48
2019-05-01T12:13:43.172Z,21.44
2019-05-01T12:14:39.638Z,21.47
2019-05-01T12:15:45.490Z,21.48
2019-05-01T12:16:51.824Z,21.44
2019-05-01T12:17:55.992Z,21.47
2019-05-01T12:18:58.875Z,21.51
2019-05-01T12:20:05.045Z,21.52
2019-05-01T12:21:08.704Z,21.56
2019-05-01T12:22:11.202Z,21.54
2019-05-01T12:23:13.613Z,21.53
2019-05-01T12:24:16.107Z,21.53
2019-05-01T12:25:18.049Z,21.53
2019-05-01T12:26:20.357Z,21.56
2019-05-01T12:27:22.404Z,21.55
2019-05-01T12:28:27.207Z,21.61
2019-05-01T12:29:31.572Z,21.61
2019-05-01T12:30:35.066Z,21.58
2019-05-01T12:31:37.197Z,21.59
2019-05-01T12:32:43.876Z,21.61
2019-05-01T12:33:46.246Z,21.62
2019-05-01T12:34:48.990Z,21.60
2019-05-01T12:35:53.511Z,21.60
2019-05-01T12:37:03.569Z,21.55
2019-05-01T12:38:05.855Z,21.53
2019-05-01T12:39:16.143Z,21.54
2019-05-01T12:40:19.292Z,21.52
2019-05-01T12:41:33.386Z,21.51
2019-05-01T12:42:36.037Z,21.52
2019-05-01T12:43:39.471Z,21.56
2019-05-01T12:44:42.055Z,21.53
2019-05-01T12:45:46.326Z,21.54
2019-05-01T12:46:54.082Z,21.49
2019-05-01T12:47:58.992Z,21.52
2019-05-01T12:49:01.360Z,21.50
2019-05-01T12:50:07.150Z,21.57
2019-05-01T12:51:09.990Z,21.61
2019-05-01T12:52:31.212Z,21.65
2019-05-01T12:53:38.750Z,21.65
2019-05-01T12:54:48.488Z,21.70
2019-05-01T12:55:52.623Z,21.69
2019-05-01T12:57:01.274Z,21.63
2019-05-01T12:58:03.416Z,21.66
2019-05-01T12:59:05.950Z,21.68
2019-05-01T13:00:10.187Z,21.70
2019-05-01T13:01:12.100Z,21.68
2019-05-01T13:02:16.010Z,21.64
2019-05-01T13:03:18.358Z,21.61
2019-05-01T13:04:20.362Z,21.59
2019-05-01T13:05:22.584Z,21.57
2019-05-01T13:06:24.492Z,21.51
2019-05-01T13:07:27.049Z,21.59
2019-05-01T13:08:32.326Z,21.54
2019-05-01T13:09:34.510Z,21.60
2019-05-01T13:10:37.864Z,21.60
2019-05-01T13:11:40.545Z,21.61
2019-05-01T13:12:42.889Z,21.63
2019-05-01T13:13:45.498Z,21.63
2019-05-01T13:14:48.171Z,21.61
2019-05-01T13:15:50.360Z,21.58
2019-05-01T13:16:53.123Z,21.57
2019-05-01T13:17:56.222Z,21.61
2019-05-01T13:19:00.307Z,21.66
2019-05-01T13:20:05.917Z,21.67
2019-05-01T13:21:08.267Z,21.68
2019-05-01T13:22:12.865Z,21.69
2019-05-01T13:23:15.321Z,21.67
2019-05-01T13:24:18.457Z,21.64
2019-05-01T13:25:21.584Z,21.64
2019-05-01T13:26:28.822Z,21.64
2019-05-01T13:27:51.692Z,21.67
2019-05-01T13:28:57.657Z,21.61
2019-05-01T13:30:07.589Z,21.66
2019-05-01T13:31:21.435Z,21.66
2019-05-01T13:32:24.179Z,21.68
2019-05-01T13:33:26.897Z,21.65
2019-05-01T13:34:29.203Z,21.67
2019-05-01T13:35:31.978Z,21.70
2019-05-01T13:36:34.173Z,21.69
2019-05-01T13:37:37.011Z,21.70
2019-05-01T13:38:39.675Z,21.64
2019-05-01T13:39:43.615Z,21.68
2019-05-01T13:40:46.352Z,21.69
2019-05-01T13:41:48.761Z,21.72
2019-05-01T13:42:51.658Z,21.70
2019-05-01T13:43:54.586Z,21.69
2019-05-01T13:44:56.894Z,21.63
2019-05-01T13:45:58.631Z,21.62
2019-05-01T13:47:01.129Z,21.58
2019-05-01T13:48:05.399Z,21.59
2019-05-01T13:49:08.592Z,21.64
2019-05-01T13:50:11.996Z,21.62
2019-05-01T13:51:15.114Z,21.70
2019-05-01T13:52:17.860Z,21.70
2019-05-01T13:53:20.415Z,21.73
2019-05-01T13:54:23.166Z,21.73
2019-05-01T13:55:25.617Z,21.67
2019-05-01T13:56:29.298Z,21.68
2019-05-01T13:57:32.183Z,21.63
2019-05-01T13:58:34.036Z,21.66